sensor_id;sensor_type;location;lat;lon;timestamp;pressure;altitude;pressure_sealevel;temperature;humidity
21742;BME280;11033;47.490;11.116;2023-04-23T00:00:16;92668.75;;;10.41;71.50
21742;BME280;11033;47.490;11.116;2023-04-23T00:02:44;92667.53;;;10.43;71.10
21742;BME280;11033;47.490;11.116;2023-04-23T00:05:11;92659.84;;;10.48;69.26
21742;BME280;11033;47.490;11.116;2023-04-23T00:07:37;92670.56;;;10.47;70.24
21742;BME280;11033;47.490;11.116;2023-04-23T00:10:03;92666.31;;;10.46;71.13
21742;BME280;11033;47.490;11.116;2023-04-23T00:12:30;92667.47;;;10.30;71.31
21742;BME280;11033;47.490;11.116;2023-04-23T00:14:56;92648.09;;;10.44;71.23
21742;BME280;11033;47.490;11.116;2023-04-23T00:17:21;92647.69;;;10.41;71.63
21742;BME280;11033;47.490;11.116;2023-04-23T00:19:46;92644.19;;;10.34;70.79
21742;BME280;11033;47.490;11.116;2023-04-23T00:22:12;92647.16;;;10.04;72.53
21742;BME280;11033;47.490;11.116;2023-04-23T00:24:38;92643.94;;;10.09;72.67
21742;BME280;11033;47.490;11.116;2023-04-23T00:27:04;92633.63;;;10.14;72.62
21742;BME280;11033;47.490;11.116;2023-04-23T00:29:29;92624.69;;;10.08;72.50
21742;BME280;11033;47.490;11.116;2023-04-23T00:31:55;92620.25;;;10.02;72.71
21742;BME280;11033;47.490;11.116;2023-04-23T00:34:20;92615.56;;;9.98;72.95
21742;BME280;11033;47.490;11.116;2023-04-23T00:36:45;92608.69;;;9.97;73.35
21742;BME280;11033;47.490;11.116;2023-04-23T00:39:11;92610.31;;;9.98;73.64
21742;BME280;11033;47.490;11.116;2023-04-23T00:41:36;92610.69;;;9.88;74.47
21742;BME280;11033;47.490;11.116;2023-04-23T00:44:01;92604.03;;;9.92;72.96
21742;BME280;11033;47.490;11.116;2023-04-23T00:46:27;92605.47;;;10.14;71.61
21742;BME280;11033;47.490;11.116;2023-04-23T00:48:53;92615.41;;;10.12;71.65
21742;BME280;11033;47.490;11.116;2023-04-23T00:51:20;92608.72;;;10.16;72.93
21742;BME280;11033;47.490;11.116;2023-04-23T00:53:47;92608.97;;;10.28;71.36
21742;BME280;11033;47.490;11.116;2023-04-23T00:56:13;92616.44;;;10.25;71.95
21742;BME280;11033;47.490;11.116;2023-04-23T00:58:39;92612.81;;;10.32;70.85
21742;BME280;11033;47.490;11.116;2023-04-23T01:01:05;92604.91;;;10.39;71.58
21742;BME280;11033;47.490;11.116;2023-04-23T01:03:31;92598.25;;;10.36;70.42
21742;BME280;11033;47.490;11.116;2023-04-23T01:06:00;92596.84;;;10.47;71.27
21742;BME280;11033;47.490;11.116;2023-04-23T01:08:25;92594.22;;;10.47;71.01
21742;BME280;11033;47.490;11.116;2023-04-23T01:10:51;92587.31;;;10.33;72.76
21742;BME280;11033;47.490;11.116;2023-04-23T01:13:17;92595.44;;;10.44;71.18
21742;BME280;11033;47.490;11.116;2023-04-23T01:15:43;92596.22;;;10.32;71.61
21742;BME280;11033;47.490;11.116;2023-04-23T01:18:08;92597.47;;;10.42;71.05
21742;BME280;11033;47.490;11.116;2023-04-23T01:20:35;92588.34;;;10.52;70.59
21742;BME280;11033;47.490;11.116;2023-04-23T01:23:02;92596.66;;;10.55;70.91
21742;BME280;11033;47.490;11.116;2023-04-23T01:25:28;92588.94;;;10.54;70.44
21742;BME280;11033;47.490;11.116;2023-04-23T01:27:54;92587.31;;;10.66;69.86
21742;BME280;11033;47.490;11.116;2023-04-23T01:30:21;92584.09;;;10.44;70.96
21742;BME280;11033;47.490;11.116;2023-04-23T01:32:47;92584.50;;;10.54;70.78
21742;BME280;11033;47.490;11.116;2023-04-23T01:35:13;92593.00;;;10.56;70.16
21742;BME280;11033;47.490;11.116;2023-04-23T01:37:38;92589.72;;;10.34;72.30
21742;BME280;11033;47.490;11.116;2023-04-23T01:40:05;92596.66;;;10.48;71.28
21742;BME280;11033;47.490;11.116;2023-04-23T01:42:32;92595.84;;;10.61;70.66
21742;BME280;11033;47.490;11.116;2023-04-23T01:44:57;92589.13;;;10.65;70.78
21742;BME280;11033;47.490;11.116;2023-04-23T01:47:22;92592.59;;;10.59;71.06
21742;BME280;11033;47.490;11.116;2023-04-23T01:49:48;92593.59;;;10.52;72.48
21742;BME280;11033;47.490;11.116;2023-04-23T01:52:13;92593.41;;;10.53;71.32
21742;BME280;11033;47.490;11.116;2023-04-23T01:54:38;92585.69;;;10.58;70.60
21742;BME280;11033;47.490;11.116;2023-04-23T01:57:04;92589.34;;;10.70;70.62
21742;BME280;11033;47.490;11.116;2023-04-23T01:59:29;92589.34;;;10.64;70.78
21742;BME280;11033;47.490;11.116;2023-04-23T02:01:54;92587.31;;;10.53;71.22
21742;BME280;11033;47.490;11.116;2023-04-23T02:04:20;92585.28;;;10.68;70.78
21742;BME280;11033;47.490;11.116;2023-04-23T02:06:48;92588.94;;;10.73;69.86
21742;BME280;11033;47.490;11.116;2023-04-23T02:09:14;92587.94;;;10.61;71.39
21742;BME280;11033;47.490;11.116;2023-04-23T02:11:39;92588.53;;;10.70;71.24
21742;BME280;11033;47.490;11.116;2023-04-23T02:14:05;92591.75;;;10.72;71.06
21742;BME280;11033;47.490;11.116;2023-04-23T02:16:31;92579.81;;;10.69;70.91
21742;BME280;11033;47.490;11.116;2023-04-23T02:18:57;92587.50;;;10.77;69.73
21742;BME280;11033;47.490;11.116;2023-04-23T02:21:23;92578.41;;;10.73;71.02
21742;BME280;11033;47.490;11.116;2023-04-23T02:23:49;92579.63;;;10.58;72.00
21742;BME280;11033;47.490;11.116;2023-04-23T02:26:15;92571.13;;;10.49;71.80
21742;BME280;11033;47.490;11.116;2023-04-23T02:28:40;92569.69;;;10.40;73.19
21742;BME280;11033;47.490;11.116;2023-04-23T02:31:05;92564.25;;;10.41;72.92
21742;BME280;11033;47.490;11.116;2023-04-23T02:33:31;92557.34;;;10.47;71.55
21742;BME280;11033;47.490;11.116;2023-04-23T02:35:56;92562.63;;;10.47;72.11
21742;BME280;11033;47.490;11.116;2023-04-23T02:38:21;92556.94;;;10.57;71.01
21742;BME280;11033;47.490;11.116;2023-04-23T02:40:47;92556.53;;;10.66;70.95
21742;BME280;11033;47.490;11.116;2023-04-23T02:43:12;92572.53;;;10.58;70.79
21742;BME280;11033;47.490;11.116;2023-04-23T02:45:37;92569.69;;;10.66;70.17
21742;BME280;11033;47.490;11.116;2023-04-23T02:48:03;92565.44;;;10.65;71.43
21742;BME280;11033;47.490;11.116;2023-04-23T02:50:28;92573.34;;;10.65;71.07
21742;BME280;11033;47.490;11.116;2023-04-23T02:52:54;92570.69;;;10.72;70.05
21742;BME280;11033;47.490;11.116;2023-04-23T02:55:19;92571.91;;;10.63;71.85
21742;BME280;11033;47.490;11.116;2023-04-23T02:57:44;92573.50;;;10.84;70.12
21742;BME280;11033;47.490;11.116;2023-04-23T03:00:10;92582.63;;;10.81;70.63
21742;BME280;11033;47.490;11.116;2023-04-23T03:02:36;92580.00;;;10.81;70.60
21742;BME280;11033;47.490;11.116;2023-04-23T03:05:02;92584.06;;;10.70;71.92
21742;BME280;11033;47.490;11.116;2023-04-23T03:07:27;92579.63;;;10.51;73.20
21742;BME280;11033;47.490;11.116;2023-04-23T03:09:52;92583.06;;;10.65;72.92
21742;BME280;11033;47.490;11.116;2023-04-23T03:12:18;92584.69;;;10.66;72.74
21742;BME280;11033;47.490;11.116;2023-04-23T03:14:43;92595.41;;;10.77;70.82
21742;BME280;11033;47.490;11.116;2023-04-23T03:17:08;92591.75;;;10.78;70.89
21742;BME280;11033;47.490;11.116;2023-04-23T03:19:34;92592.97;;;10.83;71.68
21742;BME280;11033;47.490;11.116;2023-04-23T03:21:59;92594.59;;;10.84;71.76
21742;BME280;11033;47.490;11.116;2023-04-23T03:24:27;92599.88;;;10.70;72.25
21742;BME280;11033;47.490;11.116;2023-04-23T03:26:55;92594.38;;;10.78;72.35
21742;BME280;11033;47.490;11.116;2023-04-23T03:29:22;92607.94;;;10.89;71.18
21742;BME280;11033;47.490;11.116;2023-04-23T03:31:47;92604.34;;;10.63;72.43
21742;BME280;11033;47.490;11.116;2023-04-23T03:34:12;92598.66;;;10.60;72.03
21742;BME280;11033;47.490;11.116;2023-04-23T03:36:38;92608.00;;;10.56;72.78
21742;BME280;11033;47.490;11.116;2023-04-23T03:39:04;92599.28;;;10.55;72.52
21742;BME280;11033;47.490;11.116;2023-04-23T03:41:29;92598.28;;;10.43;74.49
21742;BME280;11033;47.490;11.116;2023-04-23T03:43:54;92595.41;;;10.38;74.37
21742;BME280;11033;47.490;11.116;2023-04-23T03:46:19;92604.34;;;10.43;75.75
21742;BME280;11033;47.490;11.116;2023-04-23T03:48:45;92603.53;;;10.43;74.37
21742;BME280;11033;47.490;11.116;2023-04-23T03:51:10;92604.75;;;10.40;74.85
21742;BME280;11033;47.490;11.116;2023-04-23T03:53:35;92614.06;;;10.43;75.01
21742;BME280;11033;47.490;11.116;2023-04-23T03:56:00;92610.63;;;10.49;74.11
21742;BME280;11033;47.490;11.116;2023-04-23T03:58:26;92617.72;;;10.62;73.90
21742;BME280;11033;47.490;11.116;2023-04-23T04:00:51;92621.34;;;10.67;74.56
21742;BME280;11033;47.490;11.116;2023-04-23T04:03:16;92624.81;;;10.48;75.61
21742;BME280;11033;47.490;11.116;2023-04-23T04:05:42;92629.06;;;10.62;75.83
21742;BME280;11033;47.490;11.116;2023-04-23T04:08:08;92636.75;;;10.64;74.87
21742;BME280;11033;47.490;11.116;2023-04-23T04:10:33;92642.81;;;10.64;75.24
21742;BME280;11033;47.490;11.116;2023-04-23T04:12:58;92654.59;;;10.68;75.36
21742;BME280;11033;47.490;11.116;2023-04-23T04:15:24;92654.97;;;10.65;73.03
21742;BME280;11033;47.490;11.116;2023-04-23T04:17:49;92657.41;;;10.73;73.32
21742;BME280;11033;47.490;11.116;2023-04-23T04:20:14;92656.19;;;10.69;73.86
21742;BME280;11033;47.490;11.116;2023-04-23T04:22:40;92661.88;;;10.66;73.97
21742;BME280;11033;47.490;11.116;2023-04-23T04:25:05;92656.19;;;10.69;76.50
21742;BME280;11033;47.490;11.116;2023-04-23T04:27:31;92647.69;;;10.67;77.96
21742;BME280;11033;47.490;11.116;2023-04-23T04:29:58;92627.03;;;10.64;79.38
21742;BME280;11033;47.490;11.116;2023-04-23T04:32:26;92605.16;;;10.57;79.62
21742;BME280;11033;47.490;11.116;2023-04-23T04:34:51;92599.25;;;10.22;83.17
21742;BME280;11033;47.490;11.116;2023-04-23T04:37:16;92590.50;;;10.15;84.61
21742;BME280;11033;47.490;11.116;2023-04-23T04:39:41;92594.00;;;10.42;82.59
21742;BME280;11033;47.490;11.116;2023-04-23T04:42:07;92603.09;;;10.33;81.96
21742;BME280;11033;47.490;11.116;2023-04-23T04:44:33;92618.88;;;10.33;82.05
21742;BME280;11033;47.490;11.116;2023-04-23T04:47:01;92626.63;;;10.54;79.80
21742;BME280;11033;47.490;11.116;2023-04-23T04:49:26;92634.31;;;10.56;82.04
21742;BME280;11033;47.490;11.116;2023-04-23T04:51:52;92628.22;;;10.35;83.11
21742;BME280;11033;47.490;11.116;2023-04-23T04:54:18;92627.63;;;10.46;83.11
21742;BME280;11033;47.490;11.116;2023-04-23T04:56:43;92631.06;;;10.40;83.32
21742;BME280;11033;47.490;11.116;2023-04-23T04:59:09;92629.25;;;10.41;83.92
21742;BME280;11033;47.490;11.116;2023-04-23T05:01:34;92640.75;;;10.27;85.19
21742;BME280;11033;47.490;11.116;2023-04-23T05:04:01;92648.81;;;10.18;86.72
21742;BME280;11033;47.490;11.116;2023-04-23T05:06:26;92640.75;;;10.27;87.59
21742;BME280;11033;47.490;11.116;2023-04-23T05:08:52;92650.06;;;10.36;86.12
21742;BME280;11033;47.490;11.116;2023-04-23T05:11:18;92650.94;;;10.63;83.19
21742;BME280;11033;47.490;11.116;2023-04-23T05:13:45;92650.72;;;10.51;85.77
21742;BME280;11033;47.490;11.116;2023-04-23T05:16:11;92651.75;;;10.63;84.06
21742;BME280;11033;47.490;11.116;2023-04-23T05:18:40;92657.22;;;10.68;83.32
21742;BME280;11033;47.490;11.116;2023-04-23T05:21:06;92661.06;;;10.86;82.01
21742;BME280;11033;47.490;11.116;2023-04-23T05:23:32;92659.03;;;10.88;83.37
21742;BME280;11033;47.490;11.116;2023-04-23T05:25:57;92663.09;;;10.84;82.06
21742;BME280;11033;47.490;11.116;2023-04-23T05:28:23;92665.31;;;11.00;82.43
21742;BME280;11033;47.490;11.116;2023-04-23T05:30:49;92664.69;;;10.91;82.31
21742;BME280;11033;47.490;11.116;2023-04-23T05:33:15;92664.69;;;11.04;81.41
21742;BME280;11033;47.490;11.116;2023-04-23T05:35:41;92670.38;;;11.01;82.84
21742;BME280;11033;47.490;11.116;2023-04-23T05:38:07;92675.66;;;11.08;82.74
21742;BME280;11033;47.490;11.116;2023-04-23T05:40:33;92676.44;;;11.22;83.02
21742;BME280;11033;47.490;11.116;2023-04-23T05:42:58;92674.66;;;11.09;84.40
21742;BME280;11033;47.490;11.116;2023-04-23T05:45:24;92677.66;;;11.32;82.72
21742;BME280;11033;47.490;11.116;2023-04-23T05:47:49;92677.44;;;11.34;81.73
21742;BME280;11033;47.490;11.116;2023-04-23T05:50:15;92684.38;;;11.15;82.75
21742;BME280;11033;47.490;11.116;2023-04-23T05:52:41;92679.09;;;11.15;82.41
21742;BME280;11033;47.490;11.116;2023-04-23T05:55:06;92679.69;;;11.30;82.15
21742;BME280;11033;47.490;11.116;2023-04-23T05:57:33;92680.94;;;11.15;84.33
21742;BME280;11033;47.490;11.116;2023-04-23T05:59:59;92675.66;;;11.21;83.63
21742;BME280;11033;47.490;11.116;2023-04-23T06:02:24;92675.66;;;11.21;84.38
21742;BME280;11033;47.490;11.116;2023-04-23T06:04:49;92677.69;;;11.19;84.13
21742;BME280;11033;47.490;11.116;2023-04-23T06:07:15;92678.06;;;11.23;85.53
21742;BME280;11033;47.490;11.116;2023-04-23T06:09:40;92672.56;;;11.44;83.52
21742;BME280;11033;47.490;11.116;2023-04-23T06:12:05;92671.88;;;11.62;81.80
21742;BME280;11033;47.490;11.116;2023-04-23T06:14:31;92667.41;;;11.69;81.77
21742;BME280;11033;47.490;11.116;2023-04-23T06:16:56;92671.88;;;11.82;81.73
21742;BME280;11033;47.490;11.116;2023-04-23T06:19:21;92682.63;;;11.87;81.10
21742;BME280;11033;47.490;11.116;2023-04-23T06:21:49;92670.19;;;11.94;79.98
21742;BME280;11033;47.490;11.116;2023-04-23T06:24:15;92685.22;;;11.93;79.85
21742;BME280;11033;47.490;11.116;2023-04-23T06:26:40;92677.34;;;12.25;78.96
21742;BME280;11033;47.490;11.116;2023-04-23T06:29:05;92678.19;;;12.19;79.70
21742;BME280;11033;47.490;11.116;2023-04-23T06:31:31;92678.47;;;12.49;77.36
21742;BME280;11033;47.490;11.116;2023-04-23T06:33:56;92667.81;;;12.24;77.76
21742;BME280;11033;47.490;11.116;2023-04-23T06:36:21;92673.28;;;12.29;77.10
21742;BME280;11033;47.490;11.116;2023-04-23T06:38:46;92663.72;;;12.66;76.43
21742;BME280;11033;47.490;11.116;2023-04-23T06:41:12;92660.84;;;12.67;76.53
21742;BME280;11033;47.490;11.116;2023-04-23T06:43:37;92661.19;;;12.78;76.14
21742;BME280;11033;47.490;11.116;2023-04-23T06:46:03;92659.38;;;13.03;75.39
21742;BME280;11033;47.490;11.116;2023-04-23T06:48:28;92657.41;;;12.92;75.48
21742;BME280;11033;47.490;11.116;2023-04-23T06:50:56;92656.81;;;13.15;74.25
21742;BME280;11033;47.490;11.116;2023-04-23T06:53:21;92654.03;;;13.10;73.79
21742;BME280;11033;47.490;11.116;2023-04-23T06:55:46;92656.13;;;13.01;74.20
21742;BME280;11033;47.490;11.116;2023-04-23T06:58:13;92650.78;;;13.08;74.20
21742;BME280;11033;47.490;11.116;2023-04-23T07:00:39;92646.38;;;13.26;73.50
21742;BME280;11033;47.490;11.116;2023-04-23T07:03:05;92648.50;;;13.36;73.39
21742;BME280;11033;47.490;11.116;2023-04-23T07:05:30;92639.31;;;13.20;75.80
21742;BME280;11033;47.490;11.116;2023-04-23T07:07:55;92650.44;;;12.97;74.67
21742;BME280;11033;47.490;11.116;2023-04-23T07:10:20;92642.53;;;13.22;74.41
21742;BME280;11033;47.490;11.116;2023-04-23T07:12:46;92651.06;;;13.24;74.39
21742;BME280;11033;47.490;11.116;2023-04-23T07:15:12;92654.97;;;13.22;74.66
21742;BME280;11033;47.490;11.116;2023-04-23T07:17:37;92649.75;;;13.33;73.24
21742;BME280;11033;47.490;11.116;2023-04-23T07:20:03;92646.31;;;13.51;73.07
21742;BME280;11033;47.490;11.116;2023-04-23T07:22:31;92651.13;;;13.79;72.23
21742;BME280;11033;47.490;11.116;2023-04-23T07:24:57;92645.97;;;13.84;71.83
21742;BME280;11033;47.490;11.116;2023-04-23T07:27:22;92651.22;;;14.21;70.14
21742;BME280;11033;47.490;11.116;2023-04-23T07:29:48;92641.41;;;14.21;69.34
21742;BME280;11033;47.490;11.116;2023-04-23T07:32:13;92642.22;;;14.22;68.94
21742;BME280;11033;47.490;11.116;2023-04-23T07:34:38;92633.09;;;14.36;69.55
21742;BME280;11033;47.490;11.116;2023-04-23T07:37:04;92625.31;;;14.23;69.22
21742;BME280;11033;47.490;11.116;2023-04-23T07:39:29;92635.88;;;14.41;68.44
21742;BME280;11033;47.490;11.116;2023-04-23T07:41:54;92631.81;;;14.09;70.03
21742;BME280;11033;47.490;11.116;2023-04-23T07:44:21;92637.00;;;13.85;71.25
21742;BME280;11033;47.490;11.116;2023-04-23T07:46:46;92637.03;;;14.15;70.20
21742;BME280;11033;47.490;11.116;2023-04-23T07:49:11;92635.03;;;14.11;71.15
21742;BME280;11033;47.490;11.116;2023-04-23T07:51:37;92635.31;;;14.21;70.82
21742;BME280;11033;47.490;11.116;2023-04-23T07:54:02;92633.31;;;13.86;71.75
21742;BME280;11033;47.490;11.116;2023-04-23T07:56:27;92635.59;;;14.49;69.20
21742;BME280;11033;47.490;11.116;2023-04-23T07:58:56;92638.75;;;14.40;69.60
21742;BME280;11033;47.490;11.116;2023-04-23T08:01:22;92629.75;;;14.71;69.41
21742;BME280;11033;47.490;11.116;2023-04-23T08:03:47;92637.81;;;14.16;70.65
21742;BME280;11033;47.490;11.116;2023-04-23T08:06:13;92638.41;;;13.70;72.04
21742;BME280;11033;47.490;11.116;2023-04-23T08:08:38;92641.19;;;13.93;71.52
21742;BME280;11033;47.490;11.116;2023-04-23T08:11:06;92651.78;;;14.41;69.39
21742;BME280;11033;47.490;11.116;2023-04-23T08:13:32;92640.97;;;13.94;71.69
21742;BME280;11033;47.490;11.116;2023-04-23T08:15:58;92648.22;;;13.62;73.15
21742;BME280;11033;47.490;11.116;2023-04-23T08:18:23;92645.75;;;13.86;71.52
21742;BME280;11033;47.490;11.116;2023-04-23T08:20:49;92638.59;;;13.50;73.11
21742;BME280;11033;47.490;11.116;2023-04-23T08:23:14;92637.16;;;13.72;72.26
21742;BME280;11033;47.490;11.116;2023-04-23T08:25:40;92634.03;;;13.93;72.20
21742;BME280;11033;47.490;11.116;2023-04-23T08:28:05;92631.03;;;14.20;70.64
21742;BME280;11033;47.490;11.116;2023-04-23T08:30:30;92627.75;;;13.76;72.47
21742;BME280;11033;47.490;11.116;2023-04-23T08:32:56;92627.84;;;14.00;71.59
21742;BME280;11033;47.490;11.116;2023-04-23T08:35:22;92619.09;;;14.47;70.24
21742;BME280;11033;47.490;11.116;2023-04-23T08:37:47;92626.31;;;14.40;70.67
21742;BME280;11033;47.490;11.116;2023-04-23T08:40:13;92626.84;;;13.82;72.18
21742;BME280;11033;47.490;11.116;2023-04-23T08:43:05;92624.72;;;14.21;72.19
21742;BME280;11033;47.490;11.116;2023-04-23T08:45:32;92622.94;;;14.33;70.28
21742;BME280;11033;47.490;11.116;2023-04-23T08:47:59;92612.09;;;14.53;70.68
21742;BME280;11033;47.490;11.116;2023-04-23T08:50:25;92610.22;;;15.18;69.33
21742;BME280;11033;47.490;11.116;2023-04-23T08:52:54;92613.41;;;15.55;68.40
21742;BME280;11033;47.490;11.116;2023-04-23T08:55:21;92604.88;;;14.95;68.63
21742;BME280;11033;47.490;11.116;2023-04-23T08:57:46;92606.50;;;15.43;67.57
21742;BME280;11033;47.490;11.116;2023-04-23T09:00:14;92605.38;;;15.39;67.73
21742;BME280;11033;47.490;11.116;2023-04-23T09:02:44;92606.03;;;15.46;68.43
21742;BME280;11033;47.490;11.116;2023-04-23T09:05:10;92600.03;;;15.85;65.97
21742;BME280;11033;47.490;11.116;2023-04-23T09:07:36;92604.53;;;15.50;66.20
21742;BME280;11033;47.490;11.116;2023-04-23T09:10:02;92596.13;;;15.76;66.04
21742;BME280;11033;47.490;11.116;2023-04-23T09:12:28;92600.88;;;15.39;67.31
21742;BME280;11033;47.490;11.116;2023-04-23T09:14:54;92593.22;;;15.78;66.94
21742;BME280;11033;47.490;11.116;2023-04-23T09:17:21;92588.06;;;16.57;66.42
21742;BME280;11033;47.490;11.116;2023-04-23T09:19:47;92585.31;;;16.23;64.84
21742;BME280;11033;47.490;11.116;2023-04-23T09:22:14;92580.81;;;16.24;64.89
21742;BME280;11033;47.490;11.116;2023-04-23T09:24:42;92581.63;;;15.96;66.18
21742;BME280;11033;47.490;11.116;2023-04-23T09:27:08;92578.19;;;16.69;64.64
21742;BME280;11033;47.490;11.116;2023-04-23T09:29:34;92569.19;;;16.70;63.78
21742;BME280;11033;47.490;11.116;2023-04-23T09:32:08;92562.88;;;16.76;63.56
21742;BME280;11033;47.490;11.116;2023-04-23T09:34:35;92549.09;;;17.51;63.13
21742;BME280;11033;47.490;11.116;2023-04-23T09:37:04;92547.50;;;17.67;61.43
21742;BME280;11033;47.490;11.116;2023-04-23T09:39:33;92542.16;;;17.89;60.75
21742;BME280;11033;47.490;11.116;2023-04-23T09:42:03;92536.13;;;17.16;61.96
21742;BME280;11033;47.490;11.116;2023-04-23T09:44:30;92533.72;;;16.81;62.15
21742;BME280;11033;47.490;11.116;2023-04-23T09:47:04;92530.88;;;16.88;62.76
21742;BME280;11033;47.490;11.116;2023-04-23T09:49:30;92526.41;;;17.27;61.40
21742;BME280;11033;47.490;11.116;2023-04-23T09:51:55;92521.44;;;17.14;61.02
21742;BME280;11033;47.490;11.116;2023-04-23T09:54:21;92509.88;;;17.47;60.86
21742;BME280;11033;47.490;11.116;2023-04-23T09:56:52;92513.84;;;17.83;61.21
21742;BME280;11033;47.490;11.116;2023-04-23T09:59:29;92503.06;;;18.21;58.98
21742;BME280;11033;47.490;11.116;2023-04-23T10:01:55;92497.16;;;18.19;58.75
21742;BME280;11033;47.490;11.116;2023-04-23T10:04:22;92497.53;;;18.60;58.08
21742;BME280;11033;47.490;11.116;2023-04-23T10:06:53;92489.59;;;18.11;58.68
21742;BME280;11033;47.490;11.116;2023-04-23T10:09:20;92481.75;;;18.21;57.54
21742;BME280;11033;47.490;11.116;2023-04-23T10:11:52;92485.81;;;18.61;57.05
21742;BME280;11033;47.490;11.116;2023-04-23T10:14:22;92481.19;;;18.51;57.30
21742;BME280;11033;47.490;11.116;2023-04-23T10:16:54;92482.03;;;18.57;56.17
21742;BME280;11033;47.490;11.116;2023-04-23T10:19:22;92473.53;;;18.92;56.33
21742;BME280;11033;47.490;11.116;2023-04-23T10:21:53;92464.44;;;19.40;54.98
21742;BME280;11033;47.490;11.116;2023-04-23T10:24:25;92463.31;;;19.73;56.11
21742;BME280;11033;47.490;11.116;2023-04-23T10:26:59;92463.97;;;19.48;55.69
21742;BME280;11033;47.490;11.116;2023-04-23T10:29:29;92456.81;;;19.54;53.93
21742;BME280;11033;47.490;11.116;2023-04-23T10:31:58;92446.63;;;19.51;53.28
21742;BME280;11033;47.490;11.116;2023-04-23T10:34:25;92444.44;;;19.48;53.86
21742;BME280;11033;47.490;11.116;2023-04-23T10:36:51;92435.06;;;19.35;52.87
21742;BME280;11033;47.490;11.116;2023-04-23T10:39:22;92432.34;;;19.98;52.63
21742;BME280;11033;47.490;11.116;2023-04-23T10:41:48;92430.75;;;20.07;50.85
21742;BME280;11033;47.490;11.116;2023-04-23T10:44:14;92423.00;;;20.00;51.09
21742;BME280;11033;47.490;11.116;2023-04-23T10:46:53;92416.06;;;20.14;50.93
21742;BME280;11033;47.490;11.116;2023-04-23T10:49:21;92409.69;;;20.31;51.16
21742;BME280;11033;47.490;11.116;2023-04-23T10:51:47;92411.84;;;20.49;51.34
21742;BME280;11033;47.490;11.116;2023-04-23T10:54:14;92406.69;;;21.03;50.56
21742;BME280;11033;47.490;11.116;2023-04-23T10:56:41;92405.31;;;21.26;51.33
21742;BME280;11033;47.490;11.116;2023-04-23T10:59:16;92396.28;;;20.97;50.62
21742;BME280;11033;47.490;11.116;2023-04-23T11:01:45;92389.25;;;21.16;50.84
21742;BME280;11033;47.490;11.116;2023-04-23T11:04:25;92393.00;;;21.20;48.89
21742;BME280;11033;47.490;11.116;2023-04-23T11:06:53;92379.09;;;21.13;50.00
21742;BME280;11033;47.490;11.116;2023-04-23T11:09:42;92375.59;;;21.82;49.10
21742;BME280;11033;47.490;11.116;2023-04-23T11:12:12;92378.50;;;21.91;49.32
21742;BME280;11033;47.490;11.116;2023-04-23T11:14:46;92375.03;;;21.85;47.18
21742;BME280;11033;47.490;11.116;2023-04-23T11:17:13;92374.09;;;21.61;47.37
21742;BME280;11033;47.490;11.116;2023-04-23T11:19:39;92366.31;;;22.13;46.50
21742;BME280;11033;47.490;11.116;2023-04-23T11:22:15;92363.09;;;22.45;46.47
21742;BME280;11033;47.490;11.116;2023-04-23T11:24:43;92361.69;;;22.53;47.35
21742;BME280;11033;47.490;11.116;2023-04-23T11:27:11;92349.06;;;22.54;45.00
21742;BME280;11033;47.490;11.116;2023-04-23T11:29:39;92342.56;;;22.94;46.00
21742;BME280;11033;47.490;11.116;2023-04-23T11:32:05;92345.97;;;23.23;45.71
21742;BME280;11033;47.490;11.116;2023-04-23T11:34:44;92339.00;;;22.40;44.57
21742;BME280;11033;47.490;11.116;2023-04-23T11:37:10;92330.47;;;22.62;45.11
21742;BME280;11033;47.490;11.116;2023-04-23T11:39:36;92335.97;;;23.05;44.93
21742;BME280;11033;47.490;11.116;2023-04-23T11:42:02;92331.13;;;23.55;45.01
21742;BME280;11033;47.490;11.116;2023-04-23T11:44:29;92325.94;;;23.34;44.22
21742;BME280;11033;47.490;11.116;2023-04-23T11:46:59;92320.44;;;24.06;44.06
21742;BME280;11033;47.490;11.116;2023-04-23T11:49:25;92313.09;;;23.93;43.68
21742;BME280;11033;47.490;11.116;2023-04-23T11:51:50;92302.09;;;23.89;43.90
21742;BME280;11033;47.490;11.116;2023-04-23T11:54:16;92296.97;;;24.44;43.26
21742;BME280;11033;47.490;11.116;2023-04-23T11:56:41;92291.88;;;24.75;41.93
21742;BME280;11033;47.490;11.116;2023-04-23T11:59:06;92295.19;;;25.13;42.27
21742;BME280;11033;47.490;11.116;2023-04-23T12:04:12;92286.69;;;25.34;42.44
21742;BME280;11033;47.490;11.116;2023-04-23T12:06:39;92281.03;;;25.08;41.41
21742;BME280;11033;47.490;11.116;2023-04-23T12:09:06;92276.78;;;25.70;41.19
21742;BME280;11033;47.490;11.116;2023-04-23T12:11:34;92270.97;;;25.77;41.08
21742;BME280;11033;47.490;11.116;2023-04-23T12:13:59;92278.19;;;26.26;39.80
21742;BME280;11033;47.490;11.116;2023-04-23T12:19:02;92272.84;;;26.12;38.49
21742;BME280;11033;47.490;11.116;2023-04-23T12:21:28;92258.41;;;26.93;38.08
21742;BME280;11033;47.490;11.116;2023-04-23T12:23:55;92254.53;;;27.07;38.26
21742;BME280;11033;47.490;11.116;2023-04-23T12:26:20;92249.28;;;27.11;37.88
21742;BME280;11033;47.490;11.116;2023-04-23T12:31:27;92256.63;;;25.54;40.34
21742;BME280;11033;47.490;11.116;2023-04-23T12:34:04;92264.25;;;25.38;40.88
21742;BME280;11033;47.490;11.116;2023-04-23T12:36:30;92260.44;;;24.84;41.93
21742;BME280;11033;47.490;11.116;2023-04-23T12:41:43;92257.69;;;24.24;42.42
21742;BME280;11033;47.490;11.116;2023-04-23T12:44:08;92252.63;;;24.23;43.41
21742;BME280;11033;47.490;11.116;2023-04-23T12:46:33;92252.59;;;24.55;43.14
21742;BME280;11033;47.490;11.116;2023-04-23T12:48:59;92239.34;;;24.13;42.72
21742;BME280;11033;47.490;11.116;2023-04-23T12:51:24;92240.81;;;24.51;42.53
21742;BME280;11033;47.490;11.116;2023-04-23T12:53:49;92239.63;;;23.60;44.47
21742;BME280;11033;47.490;11.116;2023-04-23T12:56:15;92234.44;;;23.45;44.40